createdAt,value
2019-04-14T00:02:06.080Z,7.35
2019-04-14T00:05:33.712Z,7.31
2019-04-14T00:08:56.502Z,7.43
2019-04-14T00:12:20.768Z,7.08
2019-04-14T00:15:47.005Z,6.96
2019-04-14T00:19:09.131Z,6.88
2019-04-14T00:22:33.332Z,7.08
2019-04-14T00:26:24.900Z,6.92
2019-04-14T00:29:48.027Z,6.95
2019-04-14T00:33:13.205Z,6.88
2019-04-14T00:36:54.589Z,6.63
2019-04-14T00:40:29.990Z,6.76
2019-04-14T00:44:14.649Z,6.73
2019-04-14T00:47:51.743Z,6.38
2019-04-14T00:51:06.964Z,6.38
2019-04-14T00:54:30.474Z,6.46
2019-04-14T00:57:55.134Z,6.54
2019-04-14T01:01:19.747Z,6.29
2019-04-14T01:04:42.823Z,6.35
2019-04-14T01:08:05.799Z,6.28
2019-04-14T01:11:29.163Z,6.48
2019-04-14T01:14:53.783Z,6.49
2019-04-14T01:18:21.135Z,6.55
2019-04-14T01:21:44.331Z,6.67
2019-04-14T01:25:08.588Z,6.70
2019-04-14T01:28:32.970Z,6.47
2019-04-14T01:31:56.203Z,6.52
2019-04-14T01:35:20.287Z,6.54
2019-04-14T01:38:43.413Z,6.31
2019-04-14T01:42:07.124Z,6.34
2019-04-14T01:45:31.647Z,6.28
2019-04-14T01:48:54.800Z,6.42
2019-04-14T01:52:41.945Z,6.38
2019-04-14T01:56:12.336Z,6.20
2019-04-14T01:59:35.463Z,6.57
2019-04-14T02:02:59.714Z,6.29
2019-04-14T02:06:22.909Z,6.26
2019-04-14T02:09:49.507Z,6.10
2019-04-14T02:13:13.553Z,6.27
2019-04-14T02:16:41.963Z,6.44
2019-04-14T02:20:03.209Z,6.44
2019-04-14T02:23:27.901Z,6.32
2019-04-14T02:26:50.989Z,6.25
2019-04-14T02:30:19.577Z,6.05
2019-04-14T02:34:00.801Z,6.03
2019-04-14T02:41:07.351Z,6.06
2019-04-14T02:44:27.017Z,5.91
2019-04-14T02:51:12.491Z,6.41
2019-04-14T02:54:48.057Z,6.41
2019-04-14T02:58:01.671Z,6.10
2019-04-14T03:01:32.863Z,6.02
2019-04-14T03:04:54.405Z,6.10
2019-04-14T03:08:16.994Z,6.03
2019-04-14T03:11:44.425Z,6.19
2019-04-14T03:18:52.424Z,6.37
2019-04-14T03:22:43.815Z,6.31
2019-04-14T03:26:29.456Z,6.09
2019-04-14T03:30:30.258Z,6.05
2019-04-14T03:37:31.059Z,6.09
2019-04-14T03:40:28.046Z,6.29
2019-04-14T03:44:01.267Z,6.11
2019-04-14T03:50:45.970Z,6.36
2019-04-14T03:54:01.669Z,6.22
2019-04-14T03:57:04.391Z,6.12
2019-04-14T04:00:27.432Z,6.20
2019-04-14T04:03:50.416Z,6.22
2019-04-14T04:07:13.444Z,6.14
2019-04-14T04:10:37.908Z,6.11
2019-04-14T04:14:01.306Z,6.13
2019-04-14T04:18:04.782Z,6.09
2019-04-14T04:21:48.703Z,5.94
2019-04-14T04:25:18.268Z,6.05
2019-04-14T04:29:01.003Z,5.68
2019-04-14T04:32:32.654Z,6.06
2019-04-14T04:35:59.341Z,6.08
2019-04-14T04:39:34.631Z,5.98
2019-04-14T04:42:57.000Z,5.82
2019-04-14T04:46:20.358Z,5.83
2019-04-14T04:49:44.614Z,5.98
2019-04-14T04:53:08.978Z,5.90
2019-04-14T04:56:32.148Z,6.09
2019-04-14T04:59:56.234Z,6.24
2019-04-14T05:03:19.349Z,6.40
2019-04-14T05:06:57.223Z,6.27
2019-04-14T05:10:35.001Z,6.52
2019-04-14T05:14:00.069Z,6.54
2019-04-14T05:17:23.801Z,6.26
2019-04-14T05:20:49.181Z,6.15
2019-04-14T05:24:13.538Z,6.40
2019-04-14T05:27:36.808Z,6.23
2019-04-14T05:31:01.103Z,6.38
2019-04-14T05:34:26.080Z,6.39
2019-04-14T05:37:49.230Z,6.62
2019-04-14T05:41:13.581Z,6.43
2019-04-14T05:44:36.884Z,6.58
2019-04-14T05:48:00.988Z,6.24
2019-04-14T05:51:26.298Z,6.37
2019-04-14T05:54:49.716Z,6.54
2019-04-14T05:58:12.692Z,6.42
2019-04-14T06:01:36.590Z,6.50
2019-04-14T06:05:00.457Z,6.49
2019-04-14T06:08:24.501Z,6.57
2019-04-14T06:11:50.701Z,6.81
2019-04-14T06:15:14.250Z,6.93
2019-04-14T06:18:37.309Z,6.72
2019-04-14T06:22:00.327Z,6.68
2019-04-14T06:25:23.355Z,6.96
2019-04-14T06:28:48.579Z,6.99
2019-04-14T06:32:34.204Z,7.06
2019-04-14T06:36:19.056Z,6.82
2019-04-14T06:39:44.772Z,7.15
2019-04-14T06:43:08.268Z,7.37
2019-04-14T06:46:31.409Z,7.53
2019-04-14T06:49:54.458Z,7.61
2019-04-14T06:53:18.136Z,7.41
2019-04-14T06:56:41.425Z,7.38
2019-04-14T07:00:04.762Z,7.67
2019-04-14T07:03:28.613Z,7.58
2019-04-14T07:06:51.886Z,7.82
2019-04-14T07:10:14.860Z,7.55
2019-04-14T07:13:40.113Z,7.60
2019-04-14T07:17:04.142Z,7.56
2019-04-14T07:20:27.126Z,7.03
2019-04-14T07:23:50.216Z,7.18
2019-04-14T07:27:13.230Z,7.55
2019-04-14T07:31:01.202Z,7.40
2019-04-14T07:34:41.108Z,7.08
2019-04-14T07:38:24.657Z,7.80
2019-04-14T07:41:53.841Z,7.70
2019-04-14T07:45:26.984Z,8.14
2019-04-14T07:48:55.528Z,8.39
2019-04-14T07:52:37.110Z,8.65
2019-04-14T07:56:14.098Z,8.63
2019-04-14T07:59:52.556Z,8.68
2019-04-14T08:03:32.652Z,8.77
2019-04-14T08:06:57.844Z,8.55
2019-04-14T08:10:20.907Z,8.65
2019-04-14T08:13:44.007Z,8.58
2019-04-14T08:17:07.184Z,8.89
2019-04-14T08:20:30.522Z,9.07
2019-04-14T08:23:53.581Z,8.81
2019-04-14T08:27:16.674Z,9.56
2019-04-14T08:30:39.719Z,9.57
2019-04-14T08:34:02.884Z,9.46
2019-04-14T08:37:25.906Z,9.38
2019-04-14T08:40:49.816Z,9.97
2019-04-14T08:44:27.409Z,10.61
2019-04-14T08:47:59.828Z,10.22
2019-04-14T08:51:48.495Z,10.51
2019-04-14T08:55:21.266Z,10.36
2019-04-14T08:59:03.920Z,10.53
2019-04-14T09:02:56.731Z,10.64
2019-04-14T09:06:35.135Z,10.53
2019-04-14T09:10:14.323Z,10.93
2019-04-14T09:13:37.506Z,11.06
2019-04-14T09:17:01.394Z,10.99
2019-04-14T09:20:24.493Z,10.82
2019-04-14T09:23:48.068Z,11.00
2019-04-14T09:27:11.073Z,10.91
2019-04-14T09:30:34.045Z,11.35
2019-04-14T09:34:00.158Z,12.01
2019-04-14T09:37:23.274Z,12.48
2019-04-14T09:40:46.435Z,12.47
2019-04-14T09:44:09.493Z,12.64
2019-04-14T09:47:32.634Z,12.45
2019-04-14T09:51:04.784Z,12.96
2019-04-14T09:54:22.893Z,13.33
2019-04-14T09:57:45.995Z,13.17
2019-04-14T10:01:09.241Z,13.58
2019-04-14T10:04:32.625Z,14.00
2019-04-14T10:07:55.682Z,14.34
2019-04-14T10:11:21.116Z,14.98
2019-04-14T10:14:44.269Z,14.48
2019-04-14T10:18:07.725Z,15.14
2019-04-14T10:21:30.895Z,14.95
2019-04-14T10:24:54.364Z,16.38
2019-04-14T10:28:17.652Z,17.04
2019-04-14T10:31:40.959Z,16.07
2019-04-14T10:35:04.276Z,16.07
2019-04-14T10:38:30.491Z,17.14
2019-04-14T10:41:54.220Z,18.02
2019-04-14T10:45:18.502Z,17.63
2019-04-14T10:48:41.573Z,16.89
2019-04-14T10:52:04.877Z,17.70
2019-04-14T10:55:30.953Z,19.90
2019-04-14T10:58:54.098Z,20.54
2019-04-14T11:02:17.161Z,20.80
2019-04-14T11:05:49.251Z,19.88
2019-04-14T11:09:16.048Z,18.81
2019-04-14T11:12:39.095Z,18.75
2019-04-14T11:16:02.214Z,20.46
2019-04-14T11:19:25.359Z,20.21
2019-04-14T11:22:49.473Z,20.25
2019-04-14T11:26:12.576Z,20.84
2019-04-14T11:29:35.788Z,20.22
2019-04-14T11:33:17.061Z,20.66
2019-04-14T11:36:49.708Z,20.59
2019-04-14T11:40:15.624Z,20.03
2019-04-14T11:43:38.779Z,21.03
2019-04-14T11:47:02.919Z,20.99
2019-04-14T11:50:28.466Z,20.89
2019-04-14T11:53:51.513Z,22.11
2019-04-14T11:57:14.668Z,21.50
2019-04-14T12:00:57.732Z,20.27
2019-04-14T12:04:27.774Z,22.61
2019-04-14T12:08:01.029Z,20.97
2019-04-14T12:11:24.183Z,20.83
2019-04-14T12:14:47.282Z,20.63
2019-04-14T12:18:10.390Z,21.15
2019-04-14T12:21:33.437Z,21.43
2019-04-14T12:24:58.915Z,21.88
2019-04-14T12:28:22.010Z,22.61
2019-04-14T12:31:46.485Z,22.07
2019-04-14T12:35:10.503Z,21.92
2019-04-14T12:38:33.685Z,21.91
2019-04-14T12:42:26.680Z,22.21
2019-04-14T12:46:08.294Z,23.25
2019-04-14T12:49:36.284Z,22.40
2019-04-14T12:52:59.305Z,22.98
2019-04-14T12:56:25.010Z,24.68
2019-04-14T12:59:48.423Z,23.45
2019-04-14T13:03:11.435Z,21.98
2019-04-14T13:06:34.600Z,22.76
2019-04-14T13:09:58.965Z,24.01
2019-04-14T13:13:21.981Z,23.84
2019-04-14T13:16:46.138Z,25.27
2019-04-14T13:20:09.526Z,23.70
2019-04-14T13:23:32.707Z,23.29
2019-04-14T13:26:55.876Z,23.64
2019-04-14T13:30:27.097Z,24.66
2019-04-14T13:33:50.201Z,23.13
2019-04-14T13:37:13.552Z,23.02
2019-04-14T13:40:36.562Z,20.91
2019-04-14T13:43:59.872Z,21.31
2019-04-14T13:47:22.871Z,22.63
2019-04-14T13:50:46.191Z,22.42
2019-04-14T13:54:09.236Z,22.31
2019-04-14T13:57:32.298Z,23.01
2019-04-14T14:00:55.397Z,22.10
2019-04-14T14:04:18.773Z,21.86
2019-04-14T14:07:41.847Z,22.43
2019-04-14T14:11:42.760Z,23.68
2019-04-14T14:15:25.337Z,24.26
2019-04-14T14:19:04.804Z,22.82
2019-04-14T14:22:59.276Z,24.05
2019-04-14T14:26:19.328Z,23.86
2019-04-14T14:29:42.407Z,23.48
2019-04-14T14:33:05.637Z,25.10
2019-04-14T14:36:29.076Z,24.03
2019-04-14T14:39:53.146Z,24.58
2019-04-14T14:43:16.234Z,22.83
2019-04-14T14:46:45.409Z,23.54
2019-04-14T14:50:17.667Z,24.31
2019-04-14T14:53:40.857Z,24.59
2019-04-14T14:57:04.105Z,22.78
2019-04-14T15:00:30.329Z,21.54
2019-04-14T15:03:53.429Z,19.36
2019-04-14T15:07:16.784Z,21.16
2019-04-14T15:10:39.808Z,22.32
2019-04-14T15:14:03.660Z,23.84
2019-04-14T15:17:29.860Z,23.21
2019-04-14T15:20:52.888Z,22.49
2019-04-14T15:24:15.920Z,22.78
2019-04-14T15:27:39.128Z,23.53
2019-04-14T15:31:02.338Z,24.38
2019-04-14T15:34:28.994Z,24.04
2019-04-14T15:37:52.250Z,22.48
2019-04-14T15:41:15.430Z,21.04
2019-04-14T15:44:38.574Z,19.36
2019-04-14T15:48:01.687Z,19.37
2019-04-14T15:51:29.312Z,21.13
2019-04-14T15:54:52.663Z,22.04
2019-04-14T15:58:24.645Z,20.07
2019-04-14T16:02:09.936Z,17.92
2019-04-14T16:05:48.587Z,17.47
2019-04-14T16:09:49.559Z,17.67
2019-04-14T16:13:28.980Z,19.61
2019-04-14T16:17:10.219Z,21.39
2019-04-14T16:20:35.710Z,22.40
2019-04-14T16:23:59.043Z,20.17
2019-04-14T16:27:57.098Z,18.47
2019-04-14T16:31:38.340Z,17.54
2019-04-14T16:35:08.942Z,16.84
2019-04-14T16:38:32.829Z,16.21
2019-04-14T16:41:57.761Z,16.40
2019-04-14T16:45:22.759Z,16.38
2019-04-14T16:48:46.279Z,15.81
2019-04-14T16:52:27.742Z,15.51
2019-04-14T16:56:17.972Z,15.42
2019-04-14T16:59:51.841Z,15.08
2019-04-14T17:03:14.898Z,14.44
2019-04-14T17:06:37.927Z,14.41
2019-04-14T17:10:01.081Z,14.43
2019-04-14T17:13:29.481Z,15.00
2019-04-14T17:17:10.671Z,15.03
2019-04-14T17:21:02.029Z,15.16
2019-04-14T17:24:38.892Z,14.66
2019-04-14T17:28:21.482Z,14.90
2019-04-14T17:32:06.640Z,14.75
2019-04-14T17:35:49.356Z,14.50
2019-04-14T17:39:25.527Z,14.29
2019-04-14T17:43:05.299Z,14.18
2019-04-14T17:47:00.179Z,13.77
2019-04-14T17:50:39.985Z,13.91
2019-04-14T17:54:03.238Z,14.20
2019-04-14T17:57:44.946Z,13.49
2019-04-14T18:01:42.804Z,13.44
2019-04-14T18:05:14.980Z,13.21
2019-04-14T18:09:01.446Z,13.44
2019-04-14T18:12:36.028Z,13.71
2019-04-14T18:16:21.590Z,13.62
2019-04-14T18:19:59.743Z,13.66
2019-04-14T18:23:22.877Z,13.54
2019-04-14T18:26:45.942Z,13.35
2019-04-14T18:30:18.264Z,13.76
2019-04-14T18:34:12.417Z,13.62
2019-04-14T18:38:06.093Z,13.36
2019-04-14T18:41:39.409Z,13.21
2019-04-14T18:45:15.059Z,13.48
2019-04-14T18:48:57.851Z,13.27
2019-04-14T18:52:38.744Z,13.10
2019-04-14T18:56:19.392Z,13.24
2019-04-14T19:00:20.756Z,13.46
2019-04-14T19:03:44.209Z,13.14
2019-04-14T19:07:07.453Z,13.31
2019-04-14T19:10:30.973Z,13.19
2019-04-14T19:13:55.370Z,12.90
2019-04-14T19:17:27.780Z,12.97
2019-04-14T19:20:55.821Z,13.00
2019-04-14T19:24:23.084Z,12.92
2019-04-14T19:27:46.289Z,12.67
2019-04-14T19:31:09.747Z,12.62
2019-04-14T19:34:33.062Z,12.80
2019-04-14T19:37:58.871Z,12.51
2019-04-14T19:41:30.147Z,12.63
2019-04-14T19:44:50.105Z,12.55
2019-04-14T19:48:18.065Z,12.62
2019-04-14T19:51:41.211Z,12.51
2019-04-14T19:55:04.644Z,12.53
2019-04-14T19:58:29.974Z,12.29
2019-04-14T20:01:53.199Z,12.69
2019-04-14T20:05:16.406Z,12.46
2019-04-14T20:08:39.623Z,12.03
2019-04-14T20:12:04.186Z,12.12
2019-04-14T20:15:33.797Z,12.35
2019-04-14T20:19:11.027Z,12.39
2019-04-14T20:23:08.935Z,12.57
2019-04-14T20:26:50.584Z,12.27
2019-04-14T20:30:22.267Z,12.48
2019-04-14T20:33:45.437Z,12.46
2019-04-14T20:37:09.414Z,12.45
2019-04-14T20:40:32.452Z,12.32
2019-04-14T20:44:01.885Z,12.19
2019-04-14T20:47:31.306Z,12.17
2019-04-14T20:50:54.397Z,12.19
2019-04-14T20:54:17.835Z,11.81
2019-04-14T20:57:41.718Z,11.65
2019-04-14T21:01:09.734Z,11.54
2019-04-14T21:04:49.850Z,11.42
2019-04-14T21:08:42.286Z,11.28
2019-04-14T21:12:29.566Z,11.41
2019-04-14T21:16:12.490Z,10.54
2019-04-14T21:19:47.825Z,10.69
2019-04-14T21:23:36.260Z,10.76
2019-04-14T21:27:07.672Z,10.64
2019-04-14T21:30:41.176Z,10.49
2019-04-14T21:34:14.371Z,10.46
2019-04-14T21:38:06.303Z,10.29
2019-04-14T21:41:30.034Z,10.12
2019-04-14T21:44:53.094Z,10.20
2019-04-14T21:48:16.181Z,10.08
2019-04-14T21:52:03.400Z,10.17
2019-04-14T21:55:29.790Z,10.15
2019-04-14T21:59:12.628Z,10.07
2019-04-14T22:02:54.075Z,10.18
2019-04-14T22:06:23.177Z,9.87
2019-04-14T22:09:46.893Z,10.26
2019-04-14T22:13:10.198Z,10.43
2019-04-14T22:16:33.399Z,10.32
2019-04-14T22:19:59.761Z,10.52
2019-04-14T22:23:25.072Z,10.43
2019-04-14T22:26:48.343Z,10.73
2019-04-14T22:30:11.973Z,10.70
2019-04-14T22:33:35.556Z,10.88
2019-04-14T22:36:58.787Z,10.81
2019-04-14T22:40:21.877Z,10.66
2019-04-14T22:43:45.171Z,10.57
2019-04-14T22:47:08.606Z,10.56
2019-04-14T22:50:31.572Z,10.60
2019-04-14T22:53:54.814Z,10.23
2019-04-14T22:57:18.341Z,10.47
2019-04-14T23:00:49.526Z,10.34
2019-04-14T23:04:34.590Z,10.46
2019-04-14T23:08:09.350Z,10.38
2019-04-14T23:11:55.043Z,10.32
2019-04-14T23:15:35.176Z,10.31
2019-04-14T23:19:13.007Z,10.21
2019-04-14T23:22:54.705Z,10.20
2019-04-14T23:26:18.653Z,10.28
2019-04-14T23:29:42.063Z,10.42
2019-04-14T23:33:05.307Z,10.27
2019-04-14T23:36:31.248Z,10.43
2019-04-14T23:39:54.624Z,10.23
2019-04-14T23:43:18.013Z,10.27
2019-04-14T23:46:41.523Z,10.61
2019-04-14T23:50:04.962Z,10.35
2019-04-14T23:53:29.659Z,10.35
2019-04-14T23:57:04.880Z,10.26
